Valga-Valka Helen Triathlon
Skip Navigation Links
Results
Leaderboard
Course Map
Race Series
Details
25 Jun 2016
HyperLink
Page 1 of 2 (86 items)
[1]2
Pos
Race No
Fav
Name
Time
Category
Cat Pos
Gender
Gen Pos
Club
Country
Swim
O/Pos
T1
O/Pos
Cycle
O/Pos
T2
O/Pos
Run
O/Pos
135Arturs Liepa00:18:41C1Male1Carnikavas sporta centrsLAT 00:01:41100:00:33600:09:17200:00:18100:06:504
23Ricards Sniedze00:19:29C2Male2 LAT 00:01:54700:00:34700:09:43300:00:231400:06:546
333Rasmus Boisen00:19:35D1Male3Tartu UjumisklubiEST 00:02:082000:00:371600:10:091200:00:22900:06:181
430Simo Aksalu00:19:41C3Male4 EST 00:01:51400:00:381900:09:17100:00:396900:07:1416
575Marten Tsimolonskas00:19:46C4Male5Vinni VAKEST 00:01:561000:00:361200:09:55600:00:21600:06:578
685Rihard Viherpuu00:19:54C5Male6TriSmileEST 00:01:54500:00:361400:09:56700:00:18200:07:0814
769Ervin Otto Prank00:19:58C6Male7Tartu UjumisklubiEST 00:02:001300:00:34900:09:50500:00:20400:07:1215
867Georg Kleinson00:20:02C7Male8 EST 00:02:092100:00:361300:10:071000:00:21500:06:472
915Mari Mai Ruus00:20:18C1Female1Tartu UjumisklubiEST 00:02:162700:00:382100:10:07900:00:264100:06:493
1024Beatrice Vinciunaite00:20:24C2Female2Club DARNALTU 00:02:051800:00:382400:10:161400:00:274700:06:557
1154Sander Aavik00:20:30C8Male9Ujumise SpordiklubiEST 00:01:591200:00:361500:09:46400:00:253100:07:4124
1238Getriin Marii Lessing00:20:54C3Female3Tartu UjumisklubiEST 00:01:45200:00:32300:10:231800:00:19300:07:5228
1358Anette Teder00:21:15D1Female4Tartu UjumisklubiEST 00:02:172800:00:392600:10:221700:00:231700:07:3121
1436Laura-Liis Valdmaa00:21:20C4Female5Tartu UjumisklubiEST 00:01:50300:00:30100:11:023700:00:231500:07:3323
1564Kirke Kübar00:21:29D2Female6Tartu UKEST 00:02:011400:00:351100:10:151300:00:252700:08:1136
1659Pijus Dapkus00:21:30C9Male10Club DARNALTU 00:02:374600:00:33500:10:512700:00:231600:07:0512
1712Herbert Hugo Prank00:21:32D2Male11Tartu UjumisklubiEST 00:02:273600:00:443700:10:533000:00:21700:07:0410
185Oliver Holtsmeier00:21:32D3Male12 EST 00:02:223000:00:423100:10:181500:00:274600:07:4225
1976Elvins Freijs00:21:32D4Male13AquaticsLAT 00:02:283800:00:546000:10:251900:00:263700:07:1717
2026Stefan Saks00:21:32C10Male14Tartu UjumisklubiEST 00:02:182900:00:525500:10:01800:00:487700:07:3122
2160Johanna Kübar00:21:42D3Female7Tartu UKEST 00:02:031600:00:34800:10:262000:00:366400:08:0235
2214Niks Aksels Janovics00:21:48D5Male15AquaticsLAT 00:02:162600:00:402700:11:003500:00:285000:07:2318
2334Ats Rootsma00:21:49C11Male16Ujumise SpordiklubiEST 00:02:233200:00:433300:10:533100:00:242400:07:2419
2420Janis Riekstinš00:21:50C12Male17BJC Laim?teLAT 00:02:142500:00:433500:11:214400:00:253500:07:0511
2549Edmond Aru00:22:03C13Male18Vinni VAKEST 00:01:581100:00:351000:10:262100:00:231300:08:4051
268Maria Liis Alt00:22:06D4Female8Vinni VAKEST 00:02:535600:00:433400:10:593400:00:22800:07:0813
2786Kirke Kool00:22:12C5Female9Tartu UjumisklubiEST 00:01:54600:00:32200:10:392500:00:253600:08:4153
284Ivan Bondarchuk00:22:15D6Male19Tabasalu TriatloniklubiEST 00:02:243400:00:525400:10:292400:00:305500:07:5630
2922Eliise Solom00:22:18C6Female10 EST 00:02:041700:00:412900:10:211600:00:263900:08:4555
3082Marten-Hugo Kivari00:22:34C14Male20Tartu UjumisklubiEST 00:02:061900:00:423200:10:272200:00:221100:08:5558
312Eliise Ilves00:22:37C7Female11 EST 00:02:122200:00:382000:10:081100:00:264000:09:1262
3251Grete Maria Savitsch00:22:43C8Female12Tabasalu TriatloniklubiEST 00:02:142400:01:026900:11:124000:00:241800:07:5027
3313Ugne Pauryte00:22:46C9Female13Club DARNALTU 00:03:166900:00:505000:11:174300:00:221000:06:599
3428Brigita Sniukštaite00:22:47C10Female14Club DARNALTU 00:02:324100:00:371700:10:512900:00:274500:08:1841
3523Hanna-Liisa Värik00:22:54D5Female15Tabasalu TKEST 00:02:404900:00:494800:11:063900:00:221200:07:5429
3653Martina Juhansoo00:22:58D6Female16SUKL JõuluEST 00:02:344300:00:443900:11:134100:00:242500:08:0033
3750Gert Martin Savitsch00:23:00D7Male21Tabasalu TriatloniklubiEST 00:02:354500:01:097100:10:563300:00:315800:07:4626
3861Mirtel-Madlen Siimar00:23:13E1Female1721CC TriatloniklubiEST 00:02:253500:00:443800:11:244700:00:242100:08:1440
3916Marianne Kivimets00:23:15C11Female18Tabasalu TriatloniklubiEST 00:02:303900:00:545800:11:023800:00:274300:08:2143
4068Ida Tuule Jõgi00:23:17C12Female19 EST 00:02:021500:00:32400:11:345000:00:242200:08:4254
4139Grete Tsäro00:23:17D7Female20Tartu UjumisklubiEST 00:02:132300:00:382300:11:264800:00:263800:08:3349
4231Linda Eihmane00:23:20C13Female21 LAT 00:02:233300:00:454000:10:492600:00:274400:08:5557
4318Sandra Velling00:23:21C14Female22Tabasalu TriatloniklubiEST 00:02:354400:00:494700:11:013600:00:253400:08:2845
4481Kristofer-Jaago Kivari00:23:29C15Male22Tartu UjumisklubiEST 00:01:54800:00:474400:10:272300:00:242300:09:5569
459Lisett Tokovenko00:23:36D8Female23Vinni VAKEST 00:01:55900:00:413000:10:543200:00:242000:09:4066
4645Ingrid Hiiemäe00:23:42E2Female24Tartu UjumisklubiEST 00:02:435200:00:494500:11:164200:00:241900:08:2947
4710Sten-Silver Eiche00:23:48C16Male23 EST 00:02:374800:00:515100:11:535600:00:242600:08:0134
4837Miks Meijers00:24:03E1Male24 LAT 00:02:475400:00:504900:11:224500:00:253300:08:3750
4932Hubert Uku Prank00:24:06D8Male25Tartu UjumisklubiEST 00:02:455300:00:525200:12:376500:00:253000:07:2620
5040Nikita Stanitski00:24:11D9Male26 EST 00:02:374700:00:371800:11:284900:00:335900:08:5456
Page 1 of 2 (86 items)
[1]2
fb